Time;durP1;ratioP1;P1;durP2;ratioP2;P2;SDS_P1;SDS_P2;PMS_P1;PMS_P2;Temp;Humidity;BMP_temperature;BMP_pressure;BME280_temperature;BME280_humidity;BME280_pressure;Samples;Min_cycle;Max_cycle;Signal;HPM_P1;HPM_P2
2024/01/07 00:00:42;;;;;;;175.57;35.87;;;;;;;;;;10370710;28;20727;-69
2024/01/07 00:05:42;;;;;;;87.57;32.57;;;;;;;;;;10370700;28;20217;-69
2024/01/07 00:10:43;;;;;;;77.30;32.80;;;;;;;;;;10368482;28;20667;-69
2024/01/07 00:15:43;;;;;;;97.60;33.70;;;;;;;;;;10369314;28;21056;-69
2024/01/07 00:20:43;;;;;;;97.93;33.83;;;;;;;;;;10369628;28;20228;-69
2024/01/07 00:25:43;;;;;;;93.73;37.37;;;;;;;;;;10369698;28;20221;-68
2024/01/07 00:30:43;;;;;;;99.50;35.30;;;;;;;;;;10366966;28;20224;-69
2024/01/07 00:35:44;;;;;;;86.17;35.50;;;;;;;;;;10351969;28;20208;-69
2024/01/07 00:40:44;;;;;;;99.40;35.80;;;;;;;;;;10369597;28;20556;-69
2024/01/07 00:45:45;;;;;;;92.37;34.60;;;;;;;;;;10369124;28;20702;-69
2024/01/07 00:50:45;;;;;;;79.83;34.73;;;;;;;;;;10366051;28;20181;-68
2024/01/07 00:55:45;;;;;;;82.07;32.13;;;;;;;;;;10351421;28;20296;-69
2024/01/07 01:00:45;;;;;;;77.37;33.17;;;;;;;;;;10368793;28;20185;-69
2024/01/07 01:05:45;;;;;;;84.10;36.47;;;;;;;;;;10368463;28;20924;-68
2024/01/07 01:10:46;;;;;;;83.32;34.75;;;;;;;;;;10365570;28;20200;-69
2024/01/07 01:15:46;;;;;;;77.70;33.20;;;;;;;;;;10368303;28;20201;-68
2024/01/07 01:20:46;;;;;;;69.80;31.17;;;;;;;;;;10367900;28;20193;-69
2024/01/07 01:25:46;;;;;;;60.77;28.57;;;;;;;;;;10350428;28;20518;-68
2024/01/07 01:30:46;;;;;;;56.30;27.53;;;;;;;;;;10364923;28;20192;-68
2024/01/07 01:35:47;;;;;;;52.93;25.97;;;;;;;;;;10368062;28;20216;-68
2024/01/07 01:40:53;;;;;;;59.00;25.00;;;;;;;;;;10367836;28;20189;-68
2024/01/07 01:45:57;;;;;;;44.77;24.10;;;;;;;;;;10364242;28;20230;-68
2024/01/07 01:50:57;;;;;;;48.10;25.03;;;;;;;;;;10350272;28;20185;-69
2024/01/07 01:55:59;;;;;;;47.53;22.43;;;;;;;;;;10349916;28;20209;-69
2024/01/07 02:00:59;;;;;;;46.03;22.73;;;;;;;;;;10368854;28;20196;-69
2024/01/07 02:05:59;;;;;;;44.23;22.30;;;;;;;;;;10363607;28;20208;-68
2024/01/07 02:11:13;;;;;;;45.33;22.17;;;;;;;;;;10367399;28;20188;-69
2024/01/07 02:16:13;;;;;;;42.03;20.90;;;;;;;;;;10349067;28;20241;-68
2024/01/07 02:21:14;;;;;;;41.37;20.93;;;;;;;;;;10367068;28;20240;-68
2024/01/07 02:26:15;;;;;;;40.50;20.83;;;;;;;;;;10363841;28;20213;-68
2024/01/07 02:31:16;;;;;;;43.13;21.77;;;;;;;;;;10365407;28;20601;-68
2024/01/07 02:36:16;;;;;;;42.70;21.20;;;;;;;;;;10366958;28;20943;-67
2024/01/07 02:41:16;;;;;;;43.03;20.93;;;;;;;;;;10349297;28;20558;-68
2024/01/07 02:46:16;;;;;;;45.10;22.30;;;;;;;;;;10370974;28;20722;-69
2024/01/07 02:51:17;;;;;;;53.83;23.70;;;;;;;;;;10374116;28;20468;-69
2024/01/07 02:56:17;;;;;;;48.73;24.63;;;;;;;;;;10373426;28;20696;-68
2024/01/07 03:01:17;;;;;;;54.67;25.17;;;;;;;;;;10373431;28;20296;-68
2024/01/07 03:06:17;;;;;;;54.03;24.13;;;;;;;;;;10369919;28;20197;-69
2024/01/07 03:11:17;;;;;;;54.50;25.13;;;;;;;;;;10373069;28;20638;-68
2024/01/07 03:16:21;;;;;;;55.67;24.67;;;;;;;;;;10372831;28;20209;-68
2024/01/07 03:21:22;;;;;;;43.67;21.13;;;;;;;;;;10369276;28;20213;-69
2024/01/07 03:26:23;;;;;;;44.73;22.17;;;;;;;;;;10372052;28;20336;-69
2024/01/07 03:31:23;;;;;;;45.43;22.37;;;;;;;;;;10354384;28;20296;-68
2024/01/07 03:36:23;;;;;;;50.53;23.63;;;;;;;;;;10370582;28;20754;-68
2024/01/07 03:41:23;;;;;;;47.87;22.23;;;;;;;;;;10369037;28;20220;-69
2024/01/07 03:46:24;;;;;;;38.93;20.63;;;;;;;;;;10371241;28;20241;-68
2024/01/07 03:51:24;;;;;;;41.30;18.80;;;;;;;;;;10371523;28;20204;-68
2024/01/07 03:56:24;;;;;;;37.60;18.53;;;;;;;;;;10370163;28;20534;-68
2024/01/07 04:01:24;;;;;;;36.63;19.43;;;;;;;;;;10368138;28;20897;-68
2024/01/07 04:06:24;;;;;;;46.97;22.80;;;;;;;;;;10371012;28;20197;-69
2024/01/07 04:11:24;;;;;;;41.77;21.00;;;;;;;;;;10370467;28;20189;-68
2024/01/07 04:16:25;;;;;;;39.30;19.17;;;;;;;;;;10370632;28;20304;-69
2024/01/07 04:21:25;;;;;;;35.50;17.97;;;;;;;;;;10367121;28;20220;-68
2024/01/07 04:26:25;;;;;;;33.73;16.80;;;;;;;;;;10370063;28;20674;-68
2024/01/07 04:31:25;;;;;;;41.17;19.17;;;;;;;;;;10370297;28;20188;-69
2024/01/07 04:36:26;;;;;;;41.87;18.77;;;;;;;;;;10369581;28;20699;-68
2024/01/07 04:41:26;;;;;;;40.13;20.07;;;;;;;;;;10349782;28;20220;-68
2024/01/07 04:46:26;;;;;;;39.43;18.67;;;;;;;;;;10365931;28;20233;-68
2024/01/07 04:51:26;;;;;;;37.47;20.10;;;;;;;;;;10369049;28;20201;-69
2024/01/07 04:56:26;;;;;;;42.97;19.53;;;;;;;;;;10367937;28;20244;-69
2024/01/07 05:01:26;;;;;;;36.50;19.60;;;;;;;;;;10368662;28;20578;-69
2024/01/07 05:06:27;;;;;;;42.30;20.73;;;;;;;;;;10368404;28;20211;-69
2024/01/07 05:11:27;;;;;;;36.63;20.40;;;;;;;;;;10368649;28;20302;-68
2024/01/07 05:16:27;;;;;;;38.63;19.50;;;;;;;;;;10367261;28;20220;-68
2024/01/07 05:21:27;;;;;;;36.33;19.90;;;;;;;;;;10368367;28;20227;-68
2024/01/07 05:26:27;;;;;;;37.70;19.03;;;;;;;;;;10366498;28;20704;-68
2024/01/07 05:31:28;;;;;;;38.70;17.67;;;;;;;;;;10367519;28;20197;-69
2024/01/07 05:36:28;;;;;;;34.93;17.50;;;;;;;;;;10366919;28;20229;-68
2024/01/07 05:41:28;;;;;;;31.03;17.57;;;;;;;;;;10367700;28;20213;-68
2024/01/07 05:46:28;;;;;;;37.97;17.40;;;;;;;;;;10367630;28;20295;-68
2024/01/07 05:51:28;;;;;;;37.97;17.70;;;;;;;;;;10367700;28;20217;-68
2024/01/07 05:56:29;;;;;;;36.43;16.40;;;;;;;;;;10366418;28;20228;-68
2024/01/07 06:01:29;;;;;;;30.57;17.57;;;;;;;;;;10367644;28;20234;-68
2024/01/07 06:06:29;;;;;;;36.33;19.53;;;;;;;;;;10367242;28;20209;-69
2024/01/07 06:11:29;;;;;;;34.55;17.92;;;;;;;;;;10367465;28;20197;-69
2024/01/07 06:16:30;;;;;;;33.10;17.27;;;;;;;;;;10366569;28;20739;-69
2024/01/07 06:21:30;;;;;;;36.30;16.47;;;;;;;;;;10375095;28;20216;-69
2024/01/07 06:26:30;;;;;;;34.27;16.53;;;;;;;;;;10374639;28;20220;-68
2024/01/07 06:31:30;;;;;;;37.10;18.33;;;;;;;;;;10373563;28;20201;-69
2024/01/07 06:36:31;;;;;;;29.87;16.43;;;;;;;;;;10374355;28;20221;-69
2024/01/07 06:41:31;;;;;;;36.80;19.60;;;;;;;;;;10374102;28;20215;-69
2024/01/07 06:46:31;;;;;;;34.03;17.13;;;;;;;;;;10373955;28;20704;-69
2024/01/07 06:51:31;;;;;;;35.28;17.25;;;;;;;;;;10372634;28;20213;-69
2024/01/07 06:56:31;;;;;;;35.47;17.10;;;;;;;;;;10373721;28;20267;-70
2024/01/07 07:01:32;;;;;;;34.60;16.43;;;;;;;;;;10373315;28;20219;-69
2024/01/07 07:06:32;;;;;;;32.77;16.50;;;;;;;;;;10373236;28;20213;-69
2024/01/07 07:11:32;;;;;;;30.37;16.30;;;;;;;;;;10371877;28;20609;-69
2024/01/07 07:16:32;;;;;;;25.17;14.40;;;;;;;;;;10372816;28;20216;-69
2024/01/07 07:21:33;;;;;;;28.00;14.57;;;;;;;;;;10372583;28;20225;-69
2024/01/07 07:26:35;;;;;;;22.90;13.27;;;;;;;;;;10372406;28;20351;-69
2024/01/07 07:31:36;;;;;;;24.30;12.37;;;;;;;;;;10371099;28;20444;-69
2024/01/07 07:36:36;;;;;;;25.30;12.83;;;;;;;;;;10371757;28;20225;-69
2024/01/07 07:41:36;;;;;;;24.23;12.13;;;;;;;;;;10371806;28;20716;-69
2024/01/07 07:46:36;;;;;;;25.30;12.97;;;;;;;;;;10370982;28;20240;-69
2024/01/07 07:51:37;;;;;;;24.47;12.73;;;;;;;;;;10370323;28;20210;-69
2024/01/07 07:56:37;;;;;;;27.03;11.57;;;;;;;;;;10371075;28;20480;-69
2024/01/07 08:01:37;;;;;;;21.20;11.70;;;;;;;;;;10370750;28;20221;-69
2024/01/07 08:06:37;;;;;;;21.37;10.80;;;;;;;;;;10369626;28;20271;-69
2024/01/07 08:11:37;;;;;;;20.50;10.43;;;;;;;;;;10370549;28;20552;-69
2024/01/07 08:16:38;;;;;;;15.17;9.27;;;;;;;;;;10368446;28;20308;-69
2024/01/07 08:21:38;;;;;;;19.47;9.60;;;;;;;;;;10363266;28;20308;-69
2024/01/07 08:26:38;;;;;;;22.20;9.33;;;;;;;;;;10367716;28;20209;-69
2024/01/07 08:31:39;;;;;;;15.40;8.70;;;;;;;;;;10367942;28;20642;-69
2024/01/07 08:36:39;;;;;;;20.10;9.77;;;;;;;;;;10369229;28;20275;-69
2024/01/07 08:41:40;;;;;;;19.67;10.33;;;;;;;;;;10369077;28;20324;-69
2024/01/07 08:46:40;;;;;;;17.47;9.60;;;;;;;;;;10367711;28;20232;-69
2024/01/07 08:51:40;;;;;;;15.57;9.00;;;;;;;;;;10362276;28;20208;-69
2024/01/07 08:56:40;;;;;;;17.63;9.37;;;;;;;;;;10365392;28;20262;-70
2024/01/07 09:01:40;;;;;;;18.23;9.77;;;;;;;;;;10369127;28;20367;-69
2024/01/07 09:06:41;;;;;;;13.97;8.10;;;;;;;;;;10367253;28;21053;-69
2024/01/07 09:11:41;;;;;;;14.17;8.10;;;;;;;;;;10368160;28;20211;-68
2024/01/07 09:16:42;;;;;;;13.50;7.77;;;;;;;;;;10368166;28;20216;-69
2024/01/07 09:21:43;;;;;;;14.23;7.63;;;;;;;;;;10367464;28;20263;-69
2024/01/07 09:26:43;;;;;;;11.90;7.50;;;;;;;;;;10367213;28;20599;-69
2024/01/07 09:31:43;;;;;;;19.50;10.73;;;;;;;;;;10367753;28;20190;-69
2024/01/07 09:36:44;;;;;;;12.73;7.27;;;;;;;;;;10367500;28;20212;-69
2024/01/07 09:41:44;;;;;;;15.50;8.40;;;;;;;;;;10366185;28;20209;-69
2024/01/07 09:46:49;;;;;;;12.33;6.70;;;;;;;;;;10367494;28;20232;-69
2024/01/07 09:51:50;;;;;;;13.10;6.60;;;;;;;;;;10367925;28;20197;-69
2024/01/07 09:56:52;;;;;;;12.73;7.20;;;;;;;;;;10375604;28;20223;-68
2024/01/07 10:01:53;;;;;;;9.53;5.73;;;;;;;;;;10374480;28;20258;-69
2024/01/07 10:06:54;;;;;;;10.47;6.13;;;;;;;;;;10374986;28;20295;-69
2024/01/07 10:11:54;;;;;;;9.87;6.50;;;;;;;;;;10374617;28;20487;-69
2024/01/07 10:16:54;;;;;;;15.73;8.30;;;;;;;;;;10374480;28;20591;-69
2024/01/07 10:22:01;;;;;;;17.90;9.50;;;;;;;;;;10373131;28;20491;-69
2024/01/07 10:27:02;;;;;;;8.57;5.93;;;;;;;;;;10373637;28;20213;-69
2024/01/07 10:32:04;;;;;;;70.07;26.43;;;;;;;;;;10371965;28;20193;-68
2024/01/07 10:37:04;;;;;;;99.70;31.03;;;;;;;;;;10368149;28;20300;-68
2024/01/07 10:42:05;;;;;;;67.70;27.90;;;;;;;;;;10365611;28;20801;-68
2024/01/07 10:47:06;;;;;;;82.20;31.30;;;;;;;;;;10372868;28;20699;-68
2024/01/07 10:52:07;;;;;;;56.30;22.63;;;;;;;;;;10373431;28;20276;-69
2024/01/07 10:57:24;;;;;;;20.13;10.53;;;;;;;;;;10372088;28;20206;-68
2024/01/07 11:02:25;;;;;;;11.50;7.30;;;;;;;;;;10370308;28;20221;-69
2024/01/07 11:07:43;;;;;;;34.63;18.53;;;;;;;;;;10372726;28;20208;-68
2024/01/07 11:12:52;;;;;;;11.03;6.20;;;;;;;;;;10372783;28;20189;-67
2024/01/07 11:17:53;;;;;;;6.97;4.67;;;;;;;;;;10368971;28;20223;-67
2024/01/07 11:23:13;;;;;;;11.20;5.83;;;;;;;;;;10371894;28;20946;-68
2024/01/07 11:28:13;;;;;;;13.97;8.03;;;;;;;;;;10371168;28;20215;-69
2024/01/07 11:33:15;;;;;;;14.03;7.83;;;;;;;;;;10372741;28;20284;-68
2024/01/07 11:38:15;;;;;;;9.53;6.30;;;;;;;;;;10370330;28;20449;-68
2024/01/07 11:43:16;;;;;;;10.30;6.53;;;;;;;;;;10371140;28;20222;-68
2024/01/07 11:48:16;;;;;;;16.43;8.77;;;;;;;;;;10370844;28;20475;-67
2024/01/07 11:53:16;;;;;;;12.33;6.90;;;;;;;;;;10370852;28;20192;-67
2024/01/07 11:58:16;;;;;;;11.83;7.00;;;;;;;;;;10369642;28;20862;-68
2024/01/07 12:03:17;;;;;;;9.20;5.23;;;;;;;;;;10367654;28;20224;-67
2024/01/07 12:08:17;;;;;;;11.40;5.43;;;;;;;;;;10369848;28;20450;-67
2024/01/07 12:13:17;;;;;;;10.07;4.70;;;;;;;;;;10368950;28;20186;-68
2024/01/07 12:18:17;;;;;;;5.27;4.00;;;;;;;;;;10368865;28;20456;-68
2024/01/07 12:23:18;;;;;;;5.50;3.73;;;;;;;;;;10369674;28;20264;-68
2024/01/07 12:28:18;;;;;;;5.43;3.70;;;;;;;;;;10369012;28;20212;-68
2024/01/07 12:33:19;;;;;;;5.43;3.40;;;;;;;;;;10357202;28;20194;-68
2024/01/07 12:38:23;;;;;;;5.47;3.93;;;;;;;;;;10361477;28;20220;-68
2024/01/07 12:43:23;;;;;;;7.13;3.60;;;;;;;;;;10366912;28;20730;-67
2024/01/07 12:48:24;;;;;;;11.47;5.33;;;;;;;;;;10367592;28;20241;-67
2024/01/07 12:53:24;;;;;;;19.13;7.53;;;;;;;;;;10365012;28;20539;-67
2024/01/07 12:58:24;;;;;;;52.43;16.53;;;;;;;;;;10367118;28;20217;-67
2024/01/07 13:03:25;;;;;;;15.40;6.80;;;;;;;;;;10367004;28;20303;-67
2024/01/07 13:08:26;;;;;;;12.93;6.43;;;;;;;;;;10366970;28;20235;-68
2024/01/07 13:13:27;;;;;;;23.77;8.50;;;;;;;;;;10365420;28;20648;-67
2024/01/07 13:18:27;;;;;;;14.30;6.07;;;;;;;;;;10392014;23;20256;-68
2024/01/07 13:23:28;;;;;;;19.53;7.37;;;;;;;;;;10317631;28;20700;-68
2024/01/07 13:28:28;;;;;;;17.20;6.67;;;;;;;;;;10324669;28;20210;-68
2024/01/07 13:33:28;;;;;;;29.67;14.83;;;;;;;;;;10325876;28;20289;-68
2024/01/07 13:38:29;;;;;;;9.07;4.23;;;;;;;;;;10323877;28;20248;-67
2024/01/07 13:43:29;;;;;;;9.83;4.73;;;;;;;;;;10325840;28;20226;-67
2024/01/07 13:48:29;;;;;;;29.37;9.43;;;;;;;;;;10324358;28;20335;-67
2024/01/07 13:53:29;;;;;;;22.90;8.70;;;;;;;;;;10323972;28;20190;-67
2024/01/07 13:58:30;;;;;;;46.17;13.83;;;;;;;;;;10325413;28;20305;-68
2024/01/07 14:03:30;;;;;;;9.13;5.63;;;;;;;;;;10324242;28;20226;-68
2024/01/07 14:08:30;;;;;;;30.35;12.32;;;;;;;;;;10324610;28;20225;-68
2024/01/07 14:13:30;;;;;;;10.73;5.00;;;;;;;;;;10324234;28;20202;-67
2024/01/07 14:18:30;;;;;;;16.13;6.63;;;;;;;;;;10323565;28;20253;-67
2024/01/07 14:23:32;;;;;;;37.43;15.47;;;;;;;;;;10323448;28;20235;-67
2024/01/07 14:28:32;;;;;;;30.33;11.50;;;;;;;;;;10322183;28;20711;-67
2024/01/07 14:33:32;;;;;;;47.30;18.30;;;;;;;;;;10321119;28;20198;-67
2024/01/07 14:38:33;;;;;;;37.03;13.90;;;;;;;;;;10325749;28;20217;-67
2024/01/07 14:43:33;;;;;;;5.87;3.37;;;;;;;;;;10333534;28;20988;-67
2024/01/07 14:48:36;;;;;;;6.93;4.23;;;;;;;;;;10331954;28;20232;-67
2024/01/07 14:53:36;;;;;;;49.53;18.27;;;;;;;;;;10332996;28;20198;-67
2024/01/07 14:58:36;;;;;;;27.93;10.30;;;;;;;;;;10332971;28;20217;-68
2024/01/07 15:03:37;;;;;;;50.33;16.57;;;;;;;;;;10332917;28;20224;-68
2024/01/07 15:08:37;;;;;;;58.77;17.90;;;;;;;;;;10331827;28;20861;-68
2024/01/07 15:13:39;;;;;;;28.00;11.63;;;;;;;;;;10333017;28;20279;-68
2024/01/07 15:18:39;;;;;;;7.23;4.20;;;;;;;;;;10332283;28;20724;-68
2024/01/07 15:23:39;;;;;;;8.23;4.73;;;;;;;;;;10332293;28;20300;-68
2024/01/07 15:28:39;;;;;;;8.10;4.80;;;;;;;;;;10330758;28;20714;-68
2024/01/07 15:33:39;;;;;;;5.67;3.30;;;;;;;;;;10332046;28;20441;-67
2024/01/07 15:38:40;;;;;;;6.03;3.30;;;;;;;;;;10332023;28;20577;-67
2024/01/07 15:43:40;;;;;;;4.87;3.07;;;;;;;;;;10331215;28;20221;-68
2024/01/07 15:48:40;;;;;;;7.57;3.43;;;;;;;;;;10329929;28;20206;-68
2024/01/07 15:53:40;;;;;;;4.07;2.90;;;;;;;;;;10331479;28;20664;-67
2024/01/07 15:58:42;;;;;;;5.57;2.93;;;;;;;;;;10330770;28;21060;-67
2024/01/07 16:03:42;;;;;;;6.30;3.83;;;;;;;;;;10330672;28;20688;-68
2024/01/07 16:08:42;;;;;;;4.80;3.03;;;;;;;;;;10329286;28;20217;-68
2024/01/07 16:13:42;;;;;;;4.30;3.13;;;;;;;;;;10330682;28;20190;-68
2024/01/07 16:18:43;;;;;;;7.27;4.20;;;;;;;;;;10329829;28;20973;-68
2024/01/07 16:23:43;;;;;;;11.37;5.20;;;;;;;;;;10328656;28;20214;-68
2024/01/07 16:28:43;;;;;;;6.47;4.20;;;;;;;;;;10329813;28;20224;-67
2024/01/07 16:33:43;;;;;;;7.77;4.20;;;;;;;;;;10329453;28;20189;-69
2024/01/07 16:38:43;;;;;;;13.10;6.63;;;;;;;;;;10329417;28;20268;-68
2024/01/07 16:43:44;;;;;;;5.43;4.03;;;;;;;;;;10327611;28;20214;-67
2024/01/07 16:48:44;;;;;;;6.82;4.32;;;;;;;;;;10329101;28;20289;-68
2024/01/07 16:53:44;;;;;;;7.03;5.03;;;;;;;;;;10328558;28;20322;-68
2024/01/07 16:58:45;;;;;;;11.43;5.23;;;;;;;;;;10324097;28;20711;-68
2024/01/07 17:03:45;;;;;;;7.90;4.63;;;;;;;;;;10326371;28;20216;-68
2024/01/07 17:08:46;;;;;;;6.10;4.55;;;;;;;;;;10323379;28;20205;-68
2024/01/07 17:13:46;;;;;;;8.67;5.23;;;;;;;;;;10318797;28;20228;-68
2024/01/07 17:18:47;;;;;;;9.63;4.93;;;;;;;;;;10316592;28;20237;-69
2024/01/07 17:23:51;;;;;;;7.53;4.73;;;;;;;;;;10324876;28;20214;-68
2024/01/07 17:28:51;;;;;;;11.10;6.23;;;;;;;;;;10317639;28;20233;-68
2024/01/07 17:33:51;;;;;;;11.10;6.27;;;;;;;;;;10326718;28;20200;-68
2024/01/07 17:38:51;;;;;;;12.70;5.53;;;;;;;;;;10326258;28;20731;-68
2024/01/07 17:43:52;;;;;;;6.28;4.50;;;;;;;;;;10327436;28;20216;-68
2024/01/07 17:48:52;;;;;;;6.67;4.43;;;;;;;;;;10327403;28;20214;-68
2024/01/07 17:53:53;;;;;;;6.70;4.43;;;;;;;;;;10327151;28;20272;-68
2024/01/07 17:58:53;;;;;;;37.23;23.47;;;;;;;;;;10325758;28;20215;-68
2024/01/07 18:03:53;;;;;;;16.80;11.00;;;;;;;;;;10326768;28;20213;-69
2024/01/07 18:08:53;;;;;;;9.27;7.67;;;;;;;;;;10326491;28;20201;-68
2024/01/07 18:13:55;;;;;;;8.07;4.63;;;;;;;;;;10329349;28;20200;-69
2024/01/07 18:18:55;;;;;;;7.23;4.80;;;;;;;;;;10332859;28;20234;-68
2024/01/07 18:23:56;;;;;;;116.43;81.33;;;;;;;;;;10332834;28;20228;-68
2024/01/07 18:28:56;;;;;;;8.63;5.77;;;;;;;;;;10327603;28;20226;-69
2024/01/07 18:33:56;;;;;;;12.17;5.60;;;;;;;;;;10327993;28;20245;-69
2024/01/07 18:38:56;;;;;;;5.67;4.20;;;;;;;;;;10327338;28;20460;-69
2024/01/07 18:43:56;;;;;;;5.83;4.20;;;;;;;;;;10327548;28;20621;-68
2024/01/07 18:48:57;;;;;;;8.03;4.97;;;;;;;;;;10325178;28;20206;-69
2024/01/07 18:53:57;;;;;;;8.90;5.27;;;;;;;;;;10326978;28;20208;-70
2024/01/07 18:58:57;;;;;;;8.53;4.93;;;;;;;;;;10331930;28;20518;-68
2024/01/07 19:03:57;;;;;;;7.90;5.10;;;;;;;;;;10332556;28;20832;-70
2024/01/07 19:08:57;;;;;;;6.50;4.33;;;;;;;;;;10332835;28;20212;-68
2024/01/07 19:13:58;;;;;;;7.03;4.23;;;;;;;;;;10331040;28;20510;-69
2024/01/07 19:18:58;;;;;;;7.17;4.97;;;;;;;;;;10331966;28;20245;-69
2024/01/07 19:23:59;;;;;;;7.50;4.43;;;;;;;;;;10331721;28;20580;-68
2024/01/07 19:28:59;;;;;;;8.20;5.17;;;;;;;;;;10333294;28;20218;-69
2024/01/07 19:33:59;;;;;;;7.03;5.10;;;;;;;;;;10330546;28;20193;-68
2024/01/07 19:39:05;;;;;;;15.20;8.33;;;;;;;;;;10331014;28;20481;-67
2024/01/07 19:44:07;;;;;;;9.27;6.93;;;;;;;;;;10331320;28;20272;-68
2024/01/07 19:49:09;;;;;;;9.87;6.47;;;;;;;;;;10330806;28;20214;-68
2024/01/07 19:54:09;;;;;;;13.70;7.50;;;;;;;;;;10329088;28;20220;-68
2024/01/07 19:59:10;;;;;;;26.70;11.77;;;;;;;;;;10330548;28;20252;-68
2024/01/07 20:04:10;;;;;;;13.33;7.13;;;;;;;;;;10312311;28;20312;-68
2024/01/07 20:09:10;;;;;;;20.27;9.60;;;;;;;;;;10329416;28;20213;-68
2024/01/07 20:14:12;;;;;;;16.07;9.27;;;;;;;;;;10327820;28;20213;-68
2024/01/07 20:19:13;;;;;;;19.07;10.73;;;;;;;;;;10329443;28;20580;-68
2024/01/07 20:24:13;;;;;;;11.90;7.47;;;;;;;;;;10329607;28;20214;-68
2024/01/07 20:29:14;;;;;;;9.70;5.47;;;;;;;;;;10329169;28;20209;-69
2024/01/07 20:34:15;;;;;;;6.97;4.93;;;;;;;;;;10328155;28;20291;-67
2024/01/07 20:39:15;;;;;;;11.83;7.00;;;;;;;;;;10328320;28;20300;-68
2024/01/07 20:44:15;;;;;;;12.80;4.77;;;;;;;;;;10329042;28;20217;-68
2024/01/07 20:49:15;;;;;;;7.37;4.90;;;;;;;;;;10327428;28;20205;-68
2024/01/07 20:54:16;;;;;;;8.63;5.53;;;;;;;;;;10328858;28;20274;-68
2024/01/07 20:59:16;;;;;;;7.70;4.90;;;;;;;;;;10328568;28;20473;-68
2024/01/07 21:04:18;;;;;;;7.77;4.90;;;;;;;;;;10328603;28;20240;-68
2024/01/07 21:09:18;;;;;;;11.67;4.77;;;;;;;;;;10324275;28;20217;-68
2024/01/07 21:14:19;;;;;;;6.10;4.93;;;;;;;;;;10327955;28;20193;-68
2024/01/07 21:19:19;;;;;;;9.32;5.05;;;;;;;;;;10320866;28;20253;-69
2024/01/07 21:24:19;;;;;;;8.03;4.20;;;;;;;;;;10317857;28;20217;-68
2024/01/07 21:29:19;;;;;;;6.83;4.20;;;;;;;;;;10326170;28;20209;-68
2024/01/07 21:34:20;;;;;;;5.73;4.30;;;;;;;;;;10326977;28;20924;-68
2024/01/07 21:39:20;;;;;;;13.73;4.33;;;;;;;;;;10326921;28;20213;-68
2024/01/07 21:44:21;;;;;;;7.80;4.17;;;;;;;;;;10326795;28;20582;-68
2024/01/07 21:49:21;;;;;;;7.27;4.63;;;;;;;;;;10331729;28;20209;-68
2024/01/07 21:54:21;;;;;;;5.28;3.92;;;;;;;;;;10335972;28;20600;-68
2024/01/07 21:59:22;;;;;;;7.03;4.57;;;;;;;;;;10335736;28;20244;-68
2024/01/07 22:04:22;;;;;;;8.37;4.80;;;;;;;;;;10335720;28;20570;-68
2024/01/07 22:09:22;;;;;;;8.65;4.80;;;;;;;;;;10333912;28;20260;-69
2024/01/07 22:14:22;;;;;;;6.67;5.23;;;;;;;;;;10335618;28;20202;-68
2024/01/07 22:19:22;;;;;;;6.90;4.20;;;;;;;;;;10334969;28;20241;-69
2024/01/07 22:24:23;;;;;;;7.50;4.67;;;;;;;;;;10333770;28;20216;-69
2024/01/07 22:29:23;;;;;;;8.80;5.97;;;;;;;;;;10335035;28;20217;-68
2024/01/07 22:34:23;;;;;;;10.67;5.87;;;;;;;;;;10334429;28;20264;-68
2024/01/07 22:39:24;;;;;;;8.13;5.30;;;;;;;;;;10334700;28;21096;-68
2024/01/07 22:44:24;;;;;;;11.83;6.03;;;;;;;;;;10333059;28;20484;-68
2024/01/07 22:49:25;;;;;;;6.70;4.57;;;;;;;;;;10334091;28;20240;-68
2024/01/07 22:54:28;;;;;;;9.00;4.60;;;;;;;;;;10334007;28;20200;-68
2024/01/07 22:59:29;;;;;;;6.80;4.10;;;;;;;;;;10332437;28;20232;-68
2024/01/07 23:04:29;;;;;;;6.57;4.60;;;;;;;;;;10332308;28;20672;-68
2024/01/07 23:09:29;;;;;;;9.07;4.20;;;;;;;;;;10333142;28;20208;-68
2024/01/07 23:14:29;;;;;;;7.63;4.23;;;;;;;;;;10333297;28;20587;-68
2024/01/07 23:19:29;;;;;;;7.20;4.50;;;;;;;;;;10332669;28;20244;-68
2024/01/07 23:24:30;;;;;;;6.90;4.23;;;;;;;;;;10331439;28;20229;-69
2024/01/07 23:29:30;;;;;;;6.10;3.97;;;;;;;;;;10332537;28;20228;-68
2024/01/07 23:34:30;;;;;;;7.23;3.97;;;;;;;;;;10314817;28;20194;-68
2024/01/07 23:39:30;;;;;;;6.20;4.03;;;;;;;;;;10332348;28;20617;-67
2024/01/07 23:44:31;;;;;;;6.30;4.07;;;;;;;;;;10330871;28;20218;-68
2024/01/07 23:49:31;;;;;;;6.63;4.20;;;;;;;;;;10332111;28;20511;-68
2024/01/07 23:54:31;;;;;;;7.63;3.97;;;;;;;;;;10332168;28;20284;-68
2024/01/07 23:59:31;;;;;;;6.33;4.20;;;;;;;;;;10330464;28;20220;-68
